Time;durP1;ratioP1;P1;durP2;ratioP2;P2;SDS_P1;SDS_P2;PMS_P1;PMS_P2;Temp;Humidity;BMP_temperature;BMP_pressure;BME280_temperature;BME280_humidity;BME280_pressure;Samples;Min_cycle;Max_cycle;Signal;HPM_P1;HPM_P2
2023/10/11 00:03:05;;;;;;;1.33;0.47;;;;;;;21.28;43.83;99772.88;5095455;28;20263;-87
2023/10/11 00:05:39;;;;;;;2.63;0.87;;;;;;;21.31;43.71;99777.09;5077633;28;20250;-87
2023/10/11 00:08:08;;;;;;;2.97;0.60;;;;;;;21.29;43.16;99765.72;5077056;28;20176;-87
2023/10/11 00:10:42;;;;;;;2.53;0.73;;;;;;;21.18;43.67;99766.63;5095703;28;20180;-86
2023/10/11 00:13:11;;;;;;;1.93;0.50;;;;;;;21.21;43.00;99770.88;5094987;28;20176;-87
2023/10/11 00:15:38;;;;;;;1.23;0.33;;;;;;;21.16;43.28;99771.28;5094957;28;20192;-87
2023/10/11 00:18:04;;;;;;;1.70;0.60;;;;;;;21.06;43.80;99778.38;5095105;28;20200;-87
2023/10/11 00:20:47;;;;;;;1.00;0.50;;;;;;;20.94;43.76;99782.03;5076965;28;20629;-87
2023/10/11 00:23:15;;;;;;;1.50;0.57;;;;;;;20.92;43.94;99784.00;5076425;28;20198;-87
2023/10/11 00:25:41;;;;;;;2.73;0.70;;;;;;;20.94;43.36;99776.69;5077138;28;20184;-87
2023/10/11 00:28:08;;;;;;;2.10;0.93;;;;;;;20.91;43.61;99787.63;5076872;28;20164;-87
2023/10/11 00:30:38;;;;;;;2.60;0.77;;;;;;;20.93;43.40;99785.69;5094338;28;20172;-87
2023/10/11 00:33:08;;;;;;;1.67;0.80;;;;;;;20.87;44.04;99783.53;5076522;28;20530;-87
2023/10/11 00:35:48;;;;;;;4.80;0.87;;;;;;;20.79;44.25;99784.19;5076731;28;20279;-88
2023/10/11 00:38:26;;;;;;;1.53;0.47;;;;;;;20.77;44.04;99782.63;5094786;28;20184;-87
2023/10/11 00:43:35;;;;;;;2.50;0.63;;;;;;;20.72;44.02;99784.84;5095373;28;20294;-87
2023/10/11 00:46:08;;;;;;;3.30;0.60;;;;;;;20.67;44.20;99787.88;5074352;28;20183;-87
2023/10/11 00:48:37;;;;;;;4.40;0.87;;;;;;;20.56;44.73;99781.75;5078506;28;20622;-87
2023/10/11 00:51:07;;;;;;;2.70;0.90;;;;;;;20.46;44.47;99772.84;5094541;28;20180;-87
2023/10/11 00:53:34;;;;;;;4.97;1.00;;;;;;;20.38;44.51;99781.47;5094115;28;20176;-87
2023/10/11 00:56:05;;;;;;;2.63;0.93;;;;;;;20.35;44.53;99780.88;5075926;28;20211;-87
2023/10/11 00:58:32;;;;;;;5.13;1.20;;;;;;;20.27;44.73;99784.16;5094456;28;20184;-87
2023/10/11 01:01:01;;;;;;;2.47;1.10;;;;;;;20.33;44.83;99788.16;5076280;28;20210;-87
2023/10/11 01:03:31;;;;;;;3.50;0.90;;;;;;;20.35;44.33;99787.03;5076190;28;20622;-86
2023/10/11 01:05:59;;;;;;;3.13;1.10;;;;;;;20.30;44.26;99797.22;5073069;28;20666;-87
2023/10/11 01:08:38;;;;;;;2.30;0.90;;;;;;;20.32;44.09;99786.44;5056435;28;20241;-87
2023/10/11 01:11:11;;;;;;;5.70;1.20;;;;;;;20.38;43.66;99786.78;5066305;28;20198;-87
2023/10/11 01:13:42;;;;;;;4.80;1.20;;;;;;;20.29;43.77;99792.88;5094026;28;20156;-87
2023/10/11 01:16:14;;;;;;;3.60;1.37;;;;;;;20.26;43.81;99792.28;5094186;28;20621;-87
2023/10/11 01:18:42;;;;;;;3.13;1.10;;;;;;;20.34;43.88;99795.16;5093717;28;20263;-87
2023/10/11 01:21:10;;;;;;;2.13;0.80;;;;;;;20.24;44.12;99800.38;5093831;28;20701;-87
2023/10/11 01:23:37;;;;;;;2.53;1.10;;;;;;;20.16;44.50;99793.00;5094077;28;20188;-87
2023/10/11 01:26:08;;;;;;;3.93;0.80;;;;;;;20.14;44.57;99788.78;5075675;28;20181;-87
2023/10/11 01:28:48;;;;;;;2.33;0.97;;;;;;;19.98;44.91;99793.63;5094255;28;20539;-87
2023/10/11 01:31:16;;;;;;;7.67;1.17;;;;;;;19.86;45.35;99800.81;5075491;28;20183;-87
2023/10/11 01:33:44;;;;;;;1.97;0.80;;;;;;;19.84;45.42;99792.09;5074711;28;20629;-87
2023/10/11 01:36:20;;;;;;;4.57;1.33;;;;;;;19.84;45.47;99800.06;5075356;28;20187;-87
2023/10/11 01:38:47;;;;;;;3.63;1.00;;;;;;;19.81;45.79;99799.47;5093372;28;20205;-87
2023/10/11 01:41:20;;;;;;;9.13;2.10;;;;;;;19.75;45.83;99807.94;5075622;28;20168;-87
2023/10/11 01:43:47;;;;;;;4.43;1.10;;;;;;;19.70;45.88;99818.97;5093059;28;20496;-87
2023/10/11 01:46:17;;;;;;;7.33;1.00;;;;;;;19.77;45.98;99806.00;5093225;28;20578;-87
2023/10/11 01:48:46;;;;;;;1.47;0.80;;;;;;;19.77;45.97;99814.84;5075636;28;20657;-87
2023/10/11 01:51:20;;;;;;;5.27;1.40;;;;;;;19.69;46.07;99819.91;5093003;28;20176;-87
2023/10/11 01:54:00;;;;;;;4.33;1.27;;;;;;;19.74;46.10;99823.06;5089409;28;20203;-87
2023/10/11 01:56:27;;;;;;;2.87;0.70;;;;;;;19.63;46.29;99823.06;5093579;28;20191;-87
2023/10/11 01:59:00;;;;;;;2.37;1.00;;;;;;;19.63;46.23;99826.56;5075430;28;20172;-87
2023/10/11 02:01:28;;;;;;;3.03;0.87;;;;;;;19.68;46.13;99822.72;5072006;28;20177;-88
2023/10/11 02:03:59;;;;;;;5.40;0.90;;;;;;;19.64;46.23;99832.72;5072094;28;20191;-87
2023/10/11 02:06:31;;;;;;;7.67;1.40;;;;;;;19.72;46.22;99834.78;5056240;28;20177;-87
2023/10/11 02:08:57;;;;;;;3.87;0.83;;;;;;;19.83;45.88;99840.09;5073613;28;20176;-87
2023/10/11 02:11:29;;;;;;;2.23;0.70;;;;;;;19.71;45.91;99847.22;5073160;28;20259;-87
2023/10/11 02:13:57;;;;;;;4.33;1.00;;;;;;;19.57;46.21;99848.31;5055239;28;20165;-87
2023/10/11 02:16:28;;;;;;;6.23;1.10;;;;;;;19.69;45.91;99851.84;5072897;28;20190;-87
2023/10/11 02:18:59;;;;;;;15.77;1.17;;;;;;;19.70;46.10;99853.53;5073476;28;20512;-87
2023/10/11 02:21:26;;;;;;;3.60;0.60;;;;;;;19.70;46.01;99852.69;5055121;28;20196;-87
2023/10/11 02:23:51;;;;;;;3.10;1.07;;;;;;;19.73;45.92;99853.31;5091110;28;20180;-87
2023/10/11 02:26:18;;;;;;;4.27;1.20;;;;;;;19.72;45.92;99851.59;5093554;28;20618;-87
2023/10/11 02:28:45;;;;;;;4.83;0.90;;;;;;;19.70;46.41;99855.34;5093135;28;20172;-87
2023/10/11 02:31:19;;;;;;;3.37;1.37;;;;;;;19.71;46.20;99863.19;5075367;28;20206;-87
2023/10/11 02:33:51;;;;;;;6.83;0.80;;;;;;;19.72;46.15;99861.38;5093060;28;20652;-87
2023/10/11 02:36:18;;;;;;;2.57;0.90;;;;;;;19.72;45.89;99862.25;5076323;28;20645;-87
2023/10/11 02:38:50;;;;;;;3.23;1.43;;;;;;;19.76;46.22;99862.84;5075139;28;20184;-86
2023/10/11 02:41:26;;;;;;;3.53;1.10;;;;;;;19.79;46.07;99866.09;5093153;28;20152;-87
2023/10/11 02:43:57;;;;;;;2.77;1.03;;;;;;;19.82;45.99;99868.53;5092579;28;20622;-87
2023/10/11 02:46:24;;;;;;;4.50;1.10;;;;;;;19.84;45.83;99865.72;5078480;28;20515;-87
2023/10/11 02:48:54;;;;;;;4.53;1.27;;;;;;;19.86;45.76;99872.66;5072513;28;20553;-87
2023/10/11 02:51:24;;;;;;;3.20;1.17;;;;;;;19.78;45.75;99872.41;5059048;28;20235;-87
2023/10/11 02:53:54;;;;;;;3.73;0.70;;;;;;;19.76;45.82;99869.00;5095386;28;20168;-87
2023/10/11 02:56:20;;;;;;;3.10;1.00;;;;;;;19.67;45.97;99872.41;5096655;28;20184;-87
2023/10/11 02:58:49;;;;;;;3.03;1.17;;;;;;;19.61;46.05;99870.19;5096808;28;20230;-87
2023/10/11 03:01:15;;;;;;;2.37;0.80;;;;;;;19.60;45.91;99874.66;5096353;28;20177;-87
2023/10/11 03:03:42;;;;;;;6.20;0.93;;;;;;;19.49;46.23;99881.81;5096426;28;20208;-86
2023/10/11 03:06:09;;;;;;;4.67;0.90;;;;;;;19.59;46.36;99874.81;5096368;28;20637;-87
2023/10/11 03:08:37;;;;;;;2.00;0.87;;;;;;;19.58;46.41;99876.59;5078470;28;20267;-87
2023/10/11 03:11:08;;;;;;;3.17;0.90;;;;;;;19.62;46.37;99871.91;5096291;28;20168;-87
2023/10/11 03:13:44;;;;;;;1.70;0.60;;;;;;;19.57;46.53;99879.41;5078969;28;20504;-87
2023/10/11 03:16:17;;;;;;;2.40;0.80;;;;;;;19.60;46.52;99874.66;5095966;28;20180;-87
2023/10/11 03:18:47;;;;;;;3.13;0.90;;;;;;;19.66;46.25;99884.00;5096467;28;20218;-87
2023/10/11 03:21:19;;;;;;;2.10;0.90;;;;;;;19.74;45.97;99878.91;5077924;28;20239;-87
2023/10/11 03:23:54;;;;;;;5.77;0.80;;;;;;;19.77;45.86;99876.03;5078254;28;20257;-87
2023/10/11 03:26:30;;;;;;;5.87;1.03;;;;;;;19.77;46.00;99881.34;5096289;28;20191;-87
2023/10/11 03:29:03;;;;;;;5.13;0.97;;;;;;;19.78;45.88;99884.84;5078138;28;20695;-88
2023/10/11 03:31:31;;;;;;;4.90;0.77;;;;;;;19.79;45.76;99887.38;5078065;28;20172;-89
2023/10/11 03:33:58;;;;;;;3.53;1.13;;;;;;;19.81;45.94;99885.44;5078408;28;20606;-89
2023/10/11 03:36:35;;;;;;;5.33;0.97;;;;;;;19.81;45.88;99885.44;5095814;28;20591;-88
2023/10/11 03:39:08;;;;;;;4.13;0.77;;;;;;;19.85;45.66;99888.72;5078028;28;20177;-87
2023/10/11 03:41:37;;;;;;;2.90;0.80;;;;;;;19.84;45.34;99887.00;5078021;28;20199;-87
2023/10/11 03:44:27;;;;;;;5.03;1.20;;;;;;;19.82;45.51;99889.81;5077200;28;20202;-87
2023/10/11 03:46:54;;;;;;;3.57;1.10;;;;;;;19.82;45.46;99889.81;5077562;28;20180;-87
2023/10/11 03:51:49;;;;;;;4.73;1.53;;;;;;;19.86;45.11;99887.75;5095032;28;20187;-88
2023/10/11 03:54:22;;;;;;;2.03;0.90;;;;;;;19.88;44.79;99893.81;5077811;28;20200;-88
2023/10/11 03:56:55;;;;;;;4.47;1.07;;;;;;;19.82;44.85;99896.94;5093823;28;20194;-87
2023/10/11 03:59:28;;;;;;;1.63;0.63;;;;;;;19.81;44.84;99888.09;5095447;28;20191;-88
2023/10/11 04:04:59;;;;;;;6.77;1.03;;;;;;;19.80;44.63;99896.22;5094630;28;20203;-87
2023/10/11 04:07:31;;;;;;;3.37;0.80;;;;;;;19.76;44.52;99897.44;5093135;28;20161;-87
2023/10/11 04:10:04;;;;;;;7.33;0.63;;;;;;;19.67;44.58;99899.00;5095192;28;20194;-87
2023/10/11 04:12:36;;;;;;;4.30;1.10;;;;;;;19.65;44.40;99910.72;5075252;28;20203;-87
2023/10/11 04:15:17;;;;;;;5.83;1.23;;;;;;;19.64;44.36;99907.22;5095012;28;20206;-87
2023/10/11 04:17:48;;;;;;;2.10;0.83;;;;;;;19.65;44.21;99914.25;5095164;28;20167;-87
2023/10/11 04:20:18;;;;;;;5.77;1.07;;;;;;;19.63;44.33;99917.00;5094531;28;20675;-87
2023/10/11 04:22:53;;;;;;;4.83;1.20;;;;;;;19.66;43.99;99909.72;5074628;28;20172;-87
2023/10/11 04:25:22;;;;;;;4.57;1.10;;;;;;;19.65;43.91;99908.91;5074278;28;20634;-87
2023/10/11 04:28:01;;;;;;;3.30;0.97;;;;;;;19.67;43.51;99917.63;5074534;28;20165;-87
2023/10/11 04:30:41;;;;;;;8.33;1.17;;;;;;;19.60;43.57;99921.72;5042588;28;20185;-88
2023/10/11 04:33:22;;;;;;;3.73;0.63;;;;;;;19.55;43.85;99929.19;5059259;28;20622;-88
2023/10/11 04:36:02;;;;;;;6.83;1.10;;;;;;;19.54;43.78;99924.84;5074069;28;20284;-88
2023/10/11 04:38:32;;;;;;;2.17;0.77;;;;;;;19.52;43.45;99929.44;5074550;28;20168;-87
2023/10/11 04:41:02;;;;;;;2.37;1.00;;;;;;;19.42;43.58;99931.09;5074125;28;20177;-87
2023/10/11 04:43:39;;;;;;;4.20;0.70;;;;;;;19.42;43.44;99931.09;5074121;28;20540;-87
2023/10/11 04:46:13;;;;;;;3.83;0.83;;;;;;;19.42;42.92;99934.59;5053641;28;20194;-87
2023/10/11 04:48:41;;;;;;;7.97;1.13;;;;;;;19.34;43.13;99936.13;5054942;28;20196;-87
2023/10/11 04:51:38;;;;;;;5.33;1.37;;;;;;;19.31;42.99;99933.69;5072177;28;20218;-87
2023/10/11 04:59:07;;;;;;;7.63;0.93;;;;;;;19.17;43.06;99949.84;5073140;28;20620;-87
2023/10/11 05:02:08;;;;;;;2.30;0.83;;;;;;;19.18;42.88;99956.84;5055208;28;20184;-87
2023/10/11 05:04:28;;;;;;;5.00;1.23;;;;;;;19.19;42.51;99954.06;5068983;28;20188;-87
2023/10/11 05:06:55;;;;;;;2.00;0.80;;;;;;;19.13;42.83;99959.00;5055086;28;20600;-88
2023/10/11 05:09:29;;;;;;;6.33;1.57;;;;;;;19.10;42.71;99959.22;5072819;28;20196;-87
2023/10/11 05:12:07;;;;;;;6.03;1.00;;;;;;;19.17;42.61;99971.09;5073101;28;20259;-87
2023/10/11 05:14:39;;;;;;;11.83;2.07;;;;;;;19.15;42.83;99970.38;5053820;28;20223;-87
2023/10/11 05:17:31;;;;;;;5.57;1.40;;;;;;;19.16;42.79;99972.03;5067950;28;20255;-87
2023/10/11 05:25:16;;;;;;;3.53;0.90;;;;;;;19.10;43.43;99977.84;5084488;28;20256;-88
2023/10/11 05:27:49;;;;;;;2.50;1.13;;;;;;;19.11;43.42;99982.16;5059681;28;20176;-87
2023/10/11 05:33:15;;;;;;;2.50;0.70;;;;;;;19.08;43.81;99982.44;5082465;28;20208;-87
2023/10/11 05:52:17;;;;;;;2.97;1.10;;;;;;;19.28;43.09;100006.56;5093575;28;20164;-88
2023/10/11 05:54:49;;;;;;;5.50;0.80;;;;;;;19.28;43.31;100008.38;5075337;28;20257;-88
2023/10/11 05:57:15;;;;;;;4.83;1.10;;;;;;;19.29;43.38;100007.38;5094176;28;20605;-88
2023/10/11 05:59:47;;;;;;;4.07;1.03;;;;;;;19.29;43.36;100012.69;5093306;28;20573;-87
2023/10/11 06:02:14;;;;;;;1.97;0.80;;;;;;;19.25;43.40;100009.44;5093198;28;20184;-88
2023/10/11 06:04:41;;;;;;;6.20;0.97;;;;;;;19.29;43.55;100010.03;5093351;28;20227;-87
2023/10/11 06:07:07;;;;;;;2.07;0.63;;;;;;;19.23;43.58;100008.72;5093433;28;20180;-87
2023/10/11 06:09:43;;;;;;;4.13;0.80;;;;;;;19.25;43.64;100005.94;5092480;28;20232;-88
2023/10/11 06:12:22;;;;;;;7.17;1.20;;;;;;;19.33;43.76;100009.72;5092992;28;20162;-88
2023/10/11 06:14:50;;;;;;;4.77;0.90;;;;;;;19.42;43.51;100021.50;5093121;28;20192;-87
2023/10/11 06:17:21;;;;;;;2.60;0.87;;;;;;;19.50;44.07;100027.09;5092888;28;20181;-88
2023/10/11 06:19:53;;;;;;;3.33;0.87;;;;;;;19.59;43.54;100023.75;5092870;28;20243;-88
2023/10/11 06:22:21;;;;;;;5.63;0.87;;;;;;;19.69;42.89;100027.41;5080842;28;20184;-88
2023/10/11 06:24:47;;;;;;;3.87;0.90;;;;;;;19.76;42.67;100027.78;5097542;28;20168;-88
2023/10/11 06:29:51;;;;;;;5.30;0.83;;;;;;;19.88;42.46;100033.03;5097712;28;20175;-88
2023/10/11 06:32:19;;;;;;;5.53;1.03;;;;;;;19.92;42.60;100036.28;5079419;28;20188;-88
2023/10/11 06:34:47;;;;;;;2.83;0.83;;;;;;;19.91;42.39;100038.13;5097202;28;20191;-89
2023/10/11 06:37:18;;;;;;;3.97;0.93;;;;;;;19.99;42.58;100041.03;5079384;28;20245;-88
2023/10/11 06:42:23;;;;;;;4.83;0.87;;;;;;;20.14;42.12;100041.66;5097162;28;20172;-87
2023/10/11 06:44:57;;;;;;;4.67;0.90;;;;;;;20.19;41.49;100042.16;5078880;28;20179;-88
2023/10/11 06:47:26;;;;;;;6.33;1.13;;;;;;;20.23;42.13;100047.13;5058852;28;20173;-88
2023/10/11 06:49:55;;;;;;;8.47;1.17;;;;;;;20.30;41.35;100050.19;5076413;28;20169;-88
2023/10/11 06:52:31;;;;;;;7.27;1.17;;;;;;;20.34;41.63;100050.78;5074384;28;20187;-88
2023/10/11 06:55:09;;;;;;;8.13;1.40;;;;;;;20.33;41.24;100049.09;5078599;28;20716;-88
2023/10/11 06:57:45;;;;;;;5.47;1.53;;;;;;;20.37;40.93;100048.72;5078813;28;20191;-88
2023/10/11 07:00:36;;;;;;;11.63;1.67;;;;;;;20.49;40.49;100055.75;5079196;28;20237;-88
2023/10/11 07:03:06;;;;;;;2.33;0.70;;;;;;;20.52;41.01;100052.84;5079192;28;20180;-88
2023/10/11 07:05:47;;;;;;;4.67;1.13;;;;;;;20.59;40.58;100047.91;5078868;28;20210;-88
2023/10/11 07:08:20;;;;;;;4.60;0.90;;;;;;;20.58;40.58;100056.84;5097000;28;20167;-88
2023/10/11 07:13:54;;;;;;;7.43;1.60;;;;;;;20.51;40.97;100059.16;5096442;28;20267;-89
2023/10/11 07:16:44;;;;;;;8.90;2.27;;;;;;;20.57;40.33;100068.50;5096782;28;20517;-89
2023/10/11 07:19:11;;;;;;;4.47;1.50;;;;;;;20.64;40.49;100069.69;4998137;28;20183;-88
2023/10/11 07:24:19;;;;;;;6.60;1.30;;;;;;;20.62;40.71;100066.31;5076693;28;20173;-88
2023/10/11 07:29:13;;;;;;;7.83;1.60;;;;;;;20.54;40.05;100074.91;5075686;28;20342;-88
2023/10/11 07:31:48;;;;;;;3.87;1.27;;;;;;;20.42;40.72;100086.50;5082211;28;20188;-88
2023/10/11 07:34:18;;;;;;;4.40;1.30;;;;;;;20.63;39.80;100078.63;5095630;28;20178;-88
2023/10/11 07:36:45;;;;;;;5.73;1.10;;;;;;;20.66;39.28;100076.59;5078006;28;20176;-88
2023/10/11 07:39:27;;;;;;;6.73;0.97;;;;;;;20.68;39.71;100079.13;5095859;28;20180;-88
2023/10/11 07:42:07;;;;;;;9.00;1.27;;;;;;;20.77;39.45;100079.25;5078200;28;20168;-88
2023/10/11 07:44:40;;;;;;;5.87;1.20;;;;;;;20.82;39.44;100078.88;5095989;28;20153;-88
2023/10/11 07:47:15;;;;;;;5.37;0.87;;;;;;;20.84;39.69;100075.13;5096253;28;20165;-88
2023/10/11 07:49:45;;;;;;;2.00;0.60;;;;;;;20.93;39.33;100076.22;5095522;28;20717;-88
2023/10/11 07:52:19;;;;;;;3.17;0.90;;;;;;;21.08;39.34;100075.00;5095338;28;20671;-89
2023/10/11 07:54:46;;;;;;;6.67;1.27;;;;;;;21.18;38.48;100075.94;5094468;28;20188;-87
2023/10/11 07:57:15;;;;;;;8.67;0.93;;;;;;;21.26;38.71;100078.84;5094950;28;20271;-88
2023/10/11 07:59:42;;;;;;;8.10;1.10;;;;;;;21.36;38.04;100076.25;5095099;28;20177;-89
2023/10/11 08:02:08;;;;;;;11.47;1.10;;;;;;;21.49;37.84;100078.78;5095196;28;20164;-89
2023/10/11 08:04:44;;;;;;;3.47;1.40;;;;;;;21.48;37.94;100077.06;5095434;28;20261;-89
2023/10/11 08:07:12;;;;;;;3.50;1.07;;;;;;;21.49;37.88;100079.59;5095259;28;20190;-89
2023/10/11 08:09:49;;;;;;;7.93;0.93;;;;;;;21.51;37.80;100088.34;5095183;28;20248;-88
2023/10/11 08:12:19;;;;;;;9.07;1.47;;;;;;;21.42;37.89;100081.94;5095463;28;20606;-88
2023/10/11 08:14:53;;;;;;;9.30;1.43;;;;;;;21.32;38.17;100083.69;5095007;28;20192;-88
2023/10/11 08:17:27;;;;;;;8.87;1.00;;;;;;;21.26;38.13;100089.50;5077220;28;20610;-88
2023/10/11 08:19:54;;;;;;;4.67;1.40;;;;;;;21.34;38.28;100100.41;5094943;28;20640;-88
2023/10/11 08:22:22;;;;;;;10.97;1.20;;;;;;;21.48;37.56;100090.41;5094697;28;20690;-88
2023/10/11 08:24:49;;;;;;;3.30;1.20;;;;;;;21.43;37.92;100093.47;5094570;28;20183;-89
2023/10/11 08:27:27;;;;;;;10.47;1.37;;;;;;;21.46;38.06;100103.91;5095133;28;20168;-89
2023/10/11 08:30:09;;;;;;;7.07;1.30;;;;;;;21.53;37.53;100099.75;5095410;28;20160;-88
2023/10/11 08:32:38;;;;;;;6.13;1.40;;;;;;;21.55;37.58;100092.44;5094651;28;20237;-89
2023/10/11 08:35:09;;;;;;;10.63;1.23;;;;;;;21.64;37.52;100102.38;5077606;28;20247;-88
2023/10/11 08:37:41;;;;;;;3.77;1.00;;;;;;;21.60;37.84;100094.72;5094850;28;20558;-88
2023/10/11 08:40:22;;;;;;;6.80;2.00;;;;;;;21.70;37.35;100098.31;5094613;28;20184;-89
2023/10/11 08:42:52;;;;;;;9.63;1.30;;;;;;;21.81;37.34;100111.63;5094353;28;20205;-89
2023/10/11 08:45:49;;;;;;;6.80;1.47;;;;;;;21.91;37.35;100115.25;5094965;28;20251;-88
2023/10/11 08:48:17;;;;;;;7.83;1.53;;;;;;;21.98;36.94;100106.63;5092790;28;20669;-89
2023/10/11 08:50:55;;;;;;;5.57;0.90;;;;;;;22.13;36.34;100107.13;5094964;28;20241;-89
2023/10/11 08:53:26;;;;;;;6.23;1.00;;;;;;;22.15;36.49;100109.66;5094669;28;20284;-89
2023/10/11 08:55:59;;;;;;;8.67;1.37;;;;;;;22.16;36.81;100111.38;5094767;28;20193;-89
2023/10/11 08:58:30;;;;;;;10.07;1.53;;;;;;;22.11;36.88;100098.41;5076477;28;20628;-89
2023/10/11 09:00:58;;;;;;;5.70;1.30;;;;;;;21.89;37.17;100106.53;5094553;28;20157;-90
2023/10/11 09:03:26;;;;;;;9.73;0.60;;;;;;;22.01;37.11;100110.88;5076524;28;20502;-89
2023/10/11 09:05:59;;;;;;;7.40;1.13;;;;;;;22.04;37.12;100116.78;5093952;28;20172;-89
2023/10/11 09:08:32;;;;;;;8.93;1.37;;;;;;;22.13;36.70;100111.63;5094339;28;20259;-89
2023/10/11 09:11:30;;;;;;;7.57;1.47;;;;;;;22.21;36.81;100120.69;5093970;28;20176;-89
2023/10/11 09:14:24;;;;;;;5.20;1.03;;;;;;;22.07;37.47;100114.81;5093964;28;20164;-89
2023/10/11 09:16:56;;;;;;;5.60;0.97;;;;;;;22.25;37.31;100116.78;5093753;28;20248;-89
2023/10/11 09:19:24;;;;;;;4.53;0.93;;;;;;;22.30;37.31;100108.38;5094464;28;20612;-89
2023/10/11 09:22:04;;;;;;;4.63;0.83;;;;;;;22.31;37.59;100113.59;5093660;28;20299;-89
2023/10/11 09:24:41;;;;;;;1.63;0.73;;;;;;;22.35;37.31;100109.66;5076029;28;20541;-89
2023/10/11 09:29:48;;;;;;;4.90;0.60;;;;;;;22.53;37.64;100115.28;5093870;28;20176;-89
2023/10/11 09:32:19;;;;;;;1.93;0.67;;;;;;;22.34;36.61;100116.00;5093642;28;20642;-91
2023/10/11 09:34:46;;;;;;;4.90;0.90;;;;;;;22.09;36.89;100113.69;5093749;28;20184;-90
2023/10/11 09:37:13;;;;;;;1.83;0.57;;;;;;;22.08;37.49;100114.69;5093331;28;20285;-88
2023/10/11 09:39:41;;;;;;;3.23;0.67;;;;;;;22.10;37.59;100112.75;5093259;28;20180;-90
2023/10/11 09:42:11;;;;;;;2.77;1.17;;;;;;;22.17;37.44;100113.91;5093276;28;20689;-89
2023/10/11 09:44:40;;;;;;;3.07;0.73;;;;;;;22.35;36.76;100104.31;5094075;28;20157;-90
2023/10/11 09:47:16;;;;;;;1.20;0.60;;;;;;;22.51;36.94;100107.38;5093360;28;20177;-89
2023/10/11 09:49:44;;;;;;;2.80;0.90;;;;;;;22.73;36.23;100105.53;5075587;28;20206;-90
2023/10/11 09:52:11;;;;;;;5.57;0.70;;;;;;;22.87;36.15;100103.38;5093423;28;20168;-89
2023/10/11 09:54:39;;;;;;;1.50;0.63;;;;;;;22.98;36.27;100099.75;5075057;28;20550;-89
2023/10/11 09:57:26;;;;;;;1.23;0.43;;;;;;;23.13;35.79;100090.34;5075483;28;20535;-89
2023/10/11 10:00:11;;;;;;;7.97;1.00;;;;;;;23.06;35.80;100086.53;5093544;28;20176;-89
2023/10/11 10:02:46;;;;;;;2.53;0.80;;;;;;;22.51;36.49;100093.19;5055396;28;20185;-89
2023/10/11 10:05:13;;;;;;;1.73;0.77;;;;;;;22.81;36.28;100092.34;5073613;28;20188;-89
2023/10/11 10:10:27;;;;;;;3.67;0.90;;;;;;;23.35;35.81;100076.72;5093480;28;20178;-89
2023/10/11 10:12:59;;;;;;;3.77;0.90;;;;;;;23.30;34.71;100062.91;5092960;28;20171;-90
2023/10/11 10:15:33;;;;;;;2.27;0.90;;;;;;;23.42;35.51;100061.84;5087085;28;20645;-89
2023/10/11 10:18:01;;;;;;;1.93;0.67;;;;;;;23.41;34.75;100064.66;5079717;28;20212;-89
2023/10/11 10:20:41;;;;;;;3.20;0.67;;;;;;;23.46;34.97;100057.91;5089600;28;20172;-89
2023/10/11 10:23:15;;;;;;;5.33;0.83;;;;;;;23.56;34.21;100053.38;5080362;28;20200;-89
2023/10/11 10:25:48;;;;;;;2.63;0.60;;;;;;;23.70;33.99;100066.38;5092902;28;20393;-89
2023/10/11 10:28:32;;;;;;;3.43;0.83;;;;;;;24.10;34.30;100057.34;5093269;28;20159;-88
2023/10/11 10:31:10;;;;;;;3.60;1.17;;;;;;;24.25;33.79;100046.00;5092814;28;20173;-89
2023/10/11 10:33:40;;;;;;;3.07;0.90;;;;;;;24.48;32.86;100046.50;5092975;28;20176;-89
2023/10/11 10:36:31;;;;;;;4.73;0.63;;;;;;;24.62;33.23;100043.34;5093404;28;20285;-89
2023/10/11 10:41:40;;;;;;;1.77;0.50;;;;;;;24.70;32.64;100027.38;5093800;28;20200;-90
2023/10/11 10:44:19;;;;;;;6.20;0.60;;;;;;;24.73;32.53;100029.75;5092850;28;20259;-90
2023/10/11 10:46:59;;;;;;;3.50;0.60;;;;;;;24.71;32.47;100030.91;5092843;28;20176;-89
2023/10/11 10:49:42;;;;;;;14.77;1.37;;;;;;;24.43;32.37;100035.38;5092991;28;20187;-91
2023/10/11 10:52:15;;;;;;;12.73;1.00;;;;;;;24.54;32.40;100024.47;5091612;28;20605;-90
2023/10/11 10:55:04;;;;;;;1.93;0.70;;;;;;;24.76;32.29;100026.78;5093028;28;20192;-90
2023/10/11 10:57:38;;;;;;;3.17;0.50;;;;;;;24.92;32.64;100018.94;5092680;28;20172;-90
2023/10/11 11:00:22;;;;;;;1.73;0.70;;;;;;;25.14;32.77;100016.81;5092884;28;20157;-90
2023/10/11 11:02:50;;;;;;;4.43;0.73;;;;;;;24.85;31.89;100012.50;5091823;28;20176;-91
2023/10/11 11:05:25;;;;;;;2.43;0.70;;;;;;;24.97;32.49;100011.28;5092670;28;20208;-90
2023/10/11 11:07:52;;;;;;;2.20;0.70;;;;;;;25.09;32.30;100008.38;5095979;28;20239;-89
2023/10/11 11:10:20;;;;;;;3.43;0.93;;;;;;;25.44;31.62;100003.03;5096368;28;20204;-90
2023/10/11 11:12:50;;;;;;;4.20;0.53;;;;;;;25.55;31.73;100006.34;5096661;28;20218;-89
2023/10/11 11:15:22;;;;;;;2.53;1.03;;;;;;;25.44;31.40;100014.63;5096540;28;20189;-91
2023/10/11 11:17:51;;;;;;;6.63;1.17;;;;;;;25.54;31.20;100004.69;5096418;28;20176;-90
2023/10/11 11:22:52;;;;;;;4.10;0.80;;;;;;;25.74;30.96;100005.34;5096336;28;20267;-90
2023/10/11 11:28:17;;;;;;;8.27;0.90;;;;;;;26.23;30.50;99996.63;5096116;28;20160;-91
2023/10/11 11:31:11;;;;;;;5.27;1.17;;;;;;;26.58;29.91;99990.25;5096329;28;20164;-90
2023/10/11 11:33:47;;;;;;;2.33;0.83;;;;;;;26.80;29.88;99983.47;5085125;28;20192;-90
2023/10/11 11:36:40;;;;;;;4.10;0.80;;;;;;;26.82;29.13;99976.09;5075731;28;20667;-90
2023/10/11 11:42:24;;;;;;;3.20;0.80;;;;;;;27.14;28.61;99968.09;5062331;28;20191;-91
2023/10/11 11:44:55;;;;;;;2.20;0.85;;;;;;;27.20;28.66;99963.91;5096116;28;20493;-91
2023/10/11 11:47:22;;;;;;;2.42;0.68;;;;;;;27.14;29.22;99959.16;5077813;28;20184;-91
2023/10/11 11:49:47;;;;;;;4.50;1.42;;;;;;;27.36;29.21;99963.88;5096286;28;20528;-90
2023/10/11 11:52:16;;;;;;;5.07;1.60;;;;;;;27.44;29.22;99959.38;5077613;28;20172;-91
2023/10/11 11:54:43;;;;;;;6.35;1.02;;;;;;;27.22;29.25;99961.88;5094705;28;20542;-91
2023/10/11 11:57:10;;;;;;;3.22;1.15;;;;;;;27.32;28.97;99954.47;5078946;28;20267;-91
2023/10/11 11:59:39;;;;;;;2.97;1.05;;;;;;;27.33;29.72;99958.88;5077858;28;20184;-91
2023/10/11 12:02:09;;;;;;;5.03;1.38;;;;;;;27.50;29.37;99948.94;5095440;28;20168;-91
2023/10/11 12:04:37;;;;;;;4.40;1.15;;;;;;;27.70;28.93;99947.59;5077718;28;20172;-91
2023/10/11 12:07:09;;;;;;;3.58;1.42;;;;;;;27.53;28.38;99951.31;5077338;28;20196;-90
2023/10/11 12:09:35;;;;;;;5.13;1.25;;;;;;;27.62;28.81;99947.63;5077343;28;20629;-90
2023/10/11 12:12:05;;;;;;;1.92;0.90;;;;;;;27.56;28.60;99943.75;5077619;28;20238;-90
2023/10/11 12:14:37;;;;;;;4.60;1.60;;;;;;;27.73;28.79;99945.41;5095168;28;20296;-91
2023/10/11 12:17:10;;;;;;;5.13;1.10;;;;;;;27.85;28.57;99943.19;5094885;28;20195;-91
2023/10/11 12:19:44;;;;;;;3.72;1.30;;;;;;;27.97;28.77;99939.97;5076594;28;20169;-91
2023/10/11 12:22:13;;;;;;;4.68;0.95;;;;;;;27.85;28.25;99929.72;5095064;28;20589;-91
2023/10/11 12:24:44;;;;;;;3.30;1.15;;;;;;;27.91;28.08;99921.78;5077105;28;20625;-91
2023/10/11 12:27:11;;;;;;;3.90;1.10;;;;;;;28.06;28.27;99924.66;5095423;28;20152;-91
2023/10/11 12:29:38;;;;;;;4.75;1.65;;;;;;;28.05;28.27;99917.56;5094704;28;20184;-92
2023/10/11 12:32:06;;;;;;;5.10;1.38;;;;;;;27.84;27.85;99925.34;5077124;28;20255;-90
2023/10/11 12:34:33;;;;;;;5.05;1.60;;;;;;;27.78;28.06;99926.84;5095453;28;20211;-91
2023/10/11 12:37:02;;;;;;;5.30;1.15;;;;;;;27.79;28.17;99922.31;5094760;28;20184;-90
2023/10/11 12:39:33;;;;;;;3.78;1.40;;;;;;;27.65;27.91;99920.31;5094766;28;20172;-91
2023/10/11 12:41:59;;;;;;;8.30;1.50;;;;;;;27.65;27.77;99926.53;5095035;28;20587;-91
2023/10/11 12:44:28;;;;;;;7.45;1.83;;;;;;;27.49;28.35;99921.16;5094608;28;20176;-91
2023/10/11 12:46:53;;;;;;;3.50;1.15;;;;;;;27.62;28.33;99916.09;5077037;28;20669;-93
2023/10/11 12:49:20;;;;;;;5.05;1.00;;;;;;;27.59;28.24;99915.63;5094748;28;20195;-91
2023/10/11 12:51:46;;;;;;;3.03;1.10;;;;;;;27.49;27.94;99917.66;5076566;28;20215;-92
2023/10/11 12:54:15;;;;;;;3.40;1.08;;;;;;;27.80;27.90;99908.69;5076544;28;20233;-91
2023/10/11 12:56:42;;;;;;;4.07;1.42;;;;;;;27.94;27.53;99905.28;5094909;28;20180;-91
2023/10/11 12:59:12;;;;;;;2.92;1.05;;;;;;;27.83;27.65;99904.81;5094527;28;20603;-91
2023/10/11 13:01:52;;;;;;;4.38;0.90;;;;;;;28.08;27.36;99898.34;5076955;28;20177;-91